sensor_id;sensor_type;location;lat;lon;timestamp;P1;P2;P0
64138;PMS5003;50435;43.700;-79.318;2022-11-15T00:00:48;2;1;
64138;PMS5003;50435;43.700;-79.318;2022-11-15T00:03:16;2;2;
64138;PMS5003;50435;43.700;-79.318;2022-11-15T00:05:45;3;2;
64138;PMS5003;50435;43.700;-79.318;2022-11-15T00:08:13;3;2;
64138;PMS5003;50435;43.700;-79.318;2022-11-15T00:10:41;0;0;
64138;PMS5003;50435;43.700;-79.318;2022-11-15T00:13:09;3;2;
64138;PMS5003;50435;43.700;-79.318;2022-11-15T00:15:38;1;1;
64138;PMS5003;50435;43.700;-79.318;2022-11-15T00:18:10;1;1;
64138;PMS5003;50435;43.700;-79.318;2022-11-15T00:20:39;1;1;
64138;PMS5003;50435;43.700;-79.318;2022-11-15T00:23:06;1;1;
64138;PMS5003;50435;43.700;-79.318;2022-11-15T00:25:34;2;2;
64138;PMS5003;50435;43.700;-79.318;2022-11-15T00:28:02;3;3;
64138;PMS5003;50435;43.700;-79.318;2022-11-15T00:30:30;3;2;
64138;PMS5003;50435;43.700;-79.318;2022-11-15T00:33:01;3;1;
64138;PMS5003;50435;43.700;-79.318;2022-11-15T00:35:31;1;1;
64138;PMS5003;50435;43.700;-79.318;2022-11-15T00:37:59;2;2;
64138;PMS5003;50435;43.700;-79.318;2022-11-15T00:40:27;2;2;
64138;PMS5003;50435;43.700;-79.318;2022-11-15T00:42:55;3;2;
64138;PMS5003;50435;43.700;-79.318;2022-11-15T00:45:23;2;2;
64138;PMS5003;50435;43.700;-79.318;2022-11-15T00:47:51;1;1;
64138;PMS5003;50435;43.700;-79.318;2022-11-15T00:50:19;2;1;
64138;PMS5003;50435;43.700;-79.318;2022-11-15T00:52:47;2;2;
64138;PMS5003;50435;43.700;-79.318;2022-11-15T00:55:15;1;1;
64138;PMS5003;50435;43.700;-79.318;2022-11-15T00:57:44;2;2;
64138;PMS5003;50435;43.700;-79.318;2022-11-15T01:00:12;1;1;
64138;PMS5003;50435;43.700;-79.318;2022-11-15T01:02:40;3;3;
64138;PMS5003;50435;43.700;-79.318;2022-11-15T01:05:07;3;3;
64138;PMS5003;50435;43.700;-79.318;2022-11-15T01:07:35;3;3;
64138;PMS5003;50435;43.700;-79.318;2022-11-15T01:10:02;1;1;
64138;PMS5003;50435;43.700;-79.318;2022-11-15T01:12:30;1;1;
64138;PMS5003;50435;43.700;-79.318;2022-11-15T01:14:57;3;3;
64138;PMS5003;50435;43.700;-79.318;2022-11-15T01:17:25;3;2;
64138;PMS5003;50435;43.700;-79.318;2022-11-15T01:19:52;1;1;
64138;PMS5003;50435;43.700;-79.318;2022-11-15T01:22:19;3;2;
64138;PMS5003;50435;43.700;-79.318;2022-11-15T01:24:46;3;3;
64138;PMS5003;50435;43.700;-79.318;2022-11-15T01:27:15;3;3;
64138;PMS5003;50435;43.700;-79.318;2022-11-15T01:29:42;2;2;
64138;PMS5003;50435;43.700;-79.318;2022-11-15T01:32:09;4;2;
64138;PMS5003;50435;43.700;-79.318;2022-11-15T01:34:37;4;3;
64138;PMS5003;50435;43.700;-79.318;2022-11-15T01:37:05;2;2;
64138;PMS5003;50435;43.700;-79.318;2022-11-15T01:39:32;1;1;
64138;PMS5003;50435;43.700;-79.318;2022-11-15T01:41:59;2;2;
64138;PMS5003;50435;43.700;-79.318;2022-11-15T01:44:43;4;4;
64138;PMS5003;50435;43.700;-79.318;2022-11-15T01:47:15;1;1;
64138;PMS5003;50435;43.700;-79.318;2022-11-15T01:49:49;1;1;
64138;PMS5003;50435;43.700;-79.318;2022-11-15T01:52:22;2;2;
64138;PMS5003;50435;43.700;-79.318;2022-11-15T01:54:54;2;2;
64138;PMS5003;50435;43.700;-79.318;2022-11-15T01:57:25;4;3;
64138;PMS5003;50435;43.700;-79.318;2022-11-15T01:59:53;5;4;
64138;PMS5003;50435;43.700;-79.318;2022-11-15T02:02:21;3;3;
64138;PMS5003;50435;43.700;-79.318;2022-11-15T02:04:48;5;4;
64138;PMS5003;50435;43.700;-79.318;2022-11-15T02:07:16;5;5;
64138;PMS5003;50435;43.700;-79.318;2022-11-15T02:09:44;6;5;
64138;PMS5003;50435;43.700;-79.318;2022-11-15T02:12:13;9;8;
64138;PMS5003;50435;43.700;-79.318;2022-11-15T02:14:45;4;4;
64138;PMS5003;50435;43.700;-79.318;2022-11-15T02:17:36;7;5;
64138;PMS5003;50435;43.700;-79.318;2022-11-15T02:20:30;6;5;
64138;PMS5003;50435;43.700;-79.318;2022-11-15T02:23:15;5;5;
64138;PMS5003;50435;43.700;-79.318;2022-11-15T02:25:05;6;5;
64138;PMS5003;50435;43.700;-79.318;2022-11-15T02:28:10;8;7;
64138;PMS5003;50435;43.700;-79.318;2022-11-15T02:30:47;6;6;
64138;PMS5003;50435;43.700;-79.318;2022-11-15T02:33:26;5;5;
64138;PMS5003;50435;43.700;-79.318;2022-11-15T02:36:02;6;6;
64138;PMS5003;50435;43.700;-79.318;2022-11-15T02:38:35;7;7;
64138;PMS5003;50435;43.700;-79.318;2022-11-15T02:41:08;5;5;
64138;PMS5003;50435;43.700;-79.318;2022-11-15T02:43:40;7;7;
64138;PMS5003;50435;43.700;-79.318;2022-11-15T02:46:14;8;7;
64138;PMS5003;50435;43.700;-79.318;2022-11-15T02:48:48;6;6;
64138;PMS5003;50435;43.700;-79.318;2022-11-15T02:51:17;7;7;
64138;PMS5003;50435;43.700;-79.318;2022-11-15T02:53:46;10;10;
64138;PMS5003;50435;43.700;-79.318;2022-11-15T02:56:13;5;5;
64138;PMS5003;50435;43.700;-79.318;2022-11-15T02:58:48;7;7;
64138;PMS5003;50435;43.700;-79.318;2022-11-15T03:01:29;7;7;
64138;PMS5003;50435;43.700;-79.318;2022-11-15T03:04:07;6;6;
64138;PMS5003;50435;43.700;-79.318;2022-11-15T03:06:44;6;6;
64138;PMS5003;50435;43.700;-79.318;2022-11-15T03:09:21;8;8;
64138;PMS5003;50435;43.700;-79.318;2022-11-15T03:11:59;7;6;
64138;PMS5003;50435;43.700;-79.318;2022-11-15T03:14:34;7;7;
64138;PMS5003;50435;43.700;-79.318;2022-11-15T03:17:06;10;5;
64138;PMS5003;50435;43.700;-79.318;2022-11-15T03:19:44;6;6;
64138;PMS5003;50435;43.700;-79.318;2022-11-15T03:22:15;6;6;
64138;PMS5003;50435;43.700;-79.318;2022-11-15T03:24:46;7;7;
64138;PMS5003;50435;43.700;-79.318;2022-11-15T03:27:21;6;5;
64138;PMS5003;50435;43.700;-79.318;2022-11-15T03:29:54;8;6;
64138;PMS5003;50435;43.700;-79.318;2022-11-15T03:32:27;11;8;
64138;PMS5003;50435;43.700;-79.318;2022-11-15T03:34:57;7;6;
64138;PMS5003;50435;43.700;-79.318;2022-11-15T03:37:30;6;6;
64138;PMS5003;50435;43.700;-79.318;2022-11-15T03:40:02;8;7;
64138;PMS5003;50435;43.700;-79.318;2022-11-15T03:42:31;7;6;
64138;PMS5003;50435;43.700;-79.318;2022-11-15T03:45:07;5;5;
64138;PMS5003;50435;43.700;-79.318;2022-11-15T03:47:41;6;5;
64138;PMS5003;50435;43.700;-79.318;2022-11-15T03:50:13;9;6;
64138;PMS5003;50435;43.700;-79.318;2022-11-15T03:52:44;6;6;
64138;PMS5003;50435;43.700;-79.318;2022-11-15T03:55:14;7;7;
64138;PMS5003;50435;43.700;-79.318;2022-11-15T03:57:43;4;4;
64138;PMS5003;50435;43.700;-79.318;2022-11-15T04:00:11;6;6;
64138;PMS5003;50435;43.700;-79.318;2022-11-15T04:02:39;5;5;
64138;PMS5003;50435;43.700;-79.318;2022-11-15T04:05:07;4;4;
64138;PMS5003;50435;43.700;-79.318;2022-11-15T04:07:35;8;7;
64138;PMS5003;50435;43.700;-79.318;2022-11-15T04:10:02;6;5;
64138;PMS5003;50435;43.700;-79.318;2022-11-15T04:12:30;5;5;
64138;PMS5003;50435;43.700;-79.318;2022-11-15T04:14:59;9;6;
64138;PMS5003;50435;43.700;-79.318;2022-11-15T04:17:27;4;4;
64138;PMS5003;50435;43.700;-79.318;2022-11-15T04:19:54;6;6;
64138;PMS5003;50435;43.700;-79.318;2022-11-15T04:22:21;6;5;
64138;PMS5003;50435;43.700;-79.318;2022-11-15T04:24:49;6;6;
64138;PMS5003;50435;43.700;-79.318;2022-11-15T04:27:16;9;5;
64138;PMS5003;50435;43.700;-79.318;2022-11-15T04:29:43;6;6;
64138;PMS5003;50435;43.700;-79.318;2022-11-15T04:32:11;7;6;
64138;PMS5003;50435;43.700;-79.318;2022-11-15T04:34:39;5;5;
64138;PMS5003;50435;43.700;-79.318;2022-11-15T04:37:06;7;6;
64138;PMS5003;50435;43.700;-79.318;2022-11-15T04:39:33;4;4;
64138;PMS5003;50435;43.700;-79.318;2022-11-15T04:42:01;6;4;
64138;PMS5003;50435;43.700;-79.318;2022-11-15T04:44:28;7;6;
64138;PMS5003;50435;43.700;-79.318;2022-11-15T04:46:55;5;5;
64138;PMS5003;50435;43.700;-79.318;2022-11-15T04:49:23;7;5;
64138;PMS5003;50435;43.700;-79.318;2022-11-15T04:51:50;6;5;
64138;PMS5003;50435;43.700;-79.318;2022-11-15T04:54:17;7;5;
64138;PMS5003;50435;43.700;-79.318;2022-11-15T04:56:45;4;4;
64138;PMS5003;50435;43.700;-79.318;2022-11-15T04:59:12;6;6;
64138;PMS5003;50435;43.700;-79.318;2022-11-15T05:01:39;5;5;
64138;PMS5003;50435;43.700;-79.318;2022-11-15T05:04:07;5;5;
64138;PMS5003;50435;43.700;-79.318;2022-11-15T05:06:34;7;6;
64138;PMS5003;50435;43.700;-79.318;2022-11-15T05:09:01;4;4;
64138;PMS5003;50435;43.700;-79.318;2022-11-15T05:11:29;4;4;
64138;PMS5003;50435;43.700;-79.318;2022-11-15T05:13:57;4;4;
64138;PMS5003;50435;43.700;-79.318;2022-11-15T05:16:24;4;4;
64138;PMS5003;50435;43.700;-79.318;2022-11-15T05:18:52;6;6;
64138;PMS5003;50435;43.700;-79.318;2022-11-15T05:21:20;6;5;
64138;PMS5003;50435;43.700;-79.318;2022-11-15T05:23:48;5;4;
64138;PMS5003;50435;43.700;-79.318;2022-11-15T05:26:17;5;5;
64138;PMS5003;50435;43.700;-79.318;2022-11-15T05:28:44;5;5;
64138;PMS5003;50435;43.700;-79.318;2022-11-15T05:31:13;5;5;
64138;PMS5003;50435;43.700;-79.318;2022-11-15T05:33:42;4;4;
64138;PMS5003;50435;43.700;-79.318;2022-11-15T05:36:12;5;5;
64138;PMS5003;50435;43.700;-79.318;2022-11-15T05:38:43;5;5;
64138;PMS5003;50435;43.700;-79.318;2022-11-15T05:41:12;5;5;
64138;PMS5003;50435;43.700;-79.318;2022-11-15T05:43:41;7;7;
64138;PMS5003;50435;43.700;-79.318;2022-11-15T05:46:10;4;4;
64138;PMS5003;50435;43.700;-79.318;2022-11-15T05:48:39;5;4;
64138;PMS5003;50435;43.700;-79.318;2022-11-15T05:51:09;3;3;
64138;PMS5003;50435;43.700;-79.318;2022-11-15T05:53:38;6;5;
64138;PMS5003;50435;43.700;-79.318;2022-11-15T05:56:06;6;4;
64138;PMS5003;50435;43.700;-79.318;2022-11-15T05:58:36;6;6;
64138;PMS5003;50435;43.700;-79.318;2022-11-15T06:01:04;4;4;
64138;PMS5003;50435;43.700;-79.318;2022-11-15T06:03:32;3;3;
64138;PMS5003;50435;43.700;-79.318;2022-11-15T06:05:59;4;4;
64138;PMS5003;50435;43.700;-79.318;2022-11-15T06:08:27;3;3;
64138;PMS5003;50435;43.700;-79.318;2022-11-15T06:10:54;3;3;
64138;PMS5003;50435;43.700;-79.318;2022-11-15T06:13:22;4;4;
64138;PMS5003;50435;43.700;-79.318;2022-11-15T06:15:49;4;4;
64138;PMS5003;50435;43.700;-79.318;2022-11-15T06:18:16;4;4;
64138;PMS5003;50435;43.700;-79.318;2022-11-15T06:20:44;3;3;
64138;PMS5003;50435;43.700;-79.318;2022-11-15T06:23:11;4;4;
64138;PMS5003;50435;43.700;-79.318;2022-11-15T06:25:38;3;3;
64138;PMS5003;50435;43.700;-79.318;2022-11-15T06:28:06;3;3;
64138;PMS5003;50435;43.700;-79.318;2022-11-15T06:30:34;4;4;
64138;PMS5003;50435;43.700;-79.318;2022-11-15T06:33:02;4;4;
64138;PMS5003;50435;43.700;-79.318;2022-11-15T06:35:33;5;5;
64138;PMS5003;50435;43.700;-79.318;2022-11-15T06:38:02;5;3;
64138;PMS5003;50435;43.700;-79.318;2022-11-15T06:40:32;3;3;
64138;PMS5003;50435;43.700;-79.318;2022-11-15T06:43:01;4;4;
64138;PMS5003;50435;43.700;-79.318;2022-11-15T06:45:30;4;3;
64138;PMS5003;50435;43.700;-79.318;2022-11-15T06:47:58;5;5;
64138;PMS5003;50435;43.700;-79.318;2022-11-15T06:50:25;5;4;
64138;PMS5003;50435;43.700;-79.318;2022-11-15T06:52:53;3;3;
64138;PMS5003;50435;43.700;-79.318;2022-11-15T06:55:20;4;4;
64138;PMS5003;50435;43.700;-79.318;2022-11-15T06:57:48;3;3;
64138;PMS5003;50435;43.700;-79.318;2022-11-15T07:00:17;4;3;
64138;PMS5003;50435;43.700;-79.318;2022-11-15T07:02:47;2;2;
64138;PMS5003;50435;43.700;-79.318;2022-11-15T07:05:15;3;3;
64138;PMS5003;50435;43.700;-79.318;2022-11-15T07:07:45;6;4;
64138;PMS5003;50435;43.700;-79.318;2022-11-15T07:10:17;5;5;
64138;PMS5003;50435;43.700;-79.318;2022-11-15T07:12:46;4;4;
64138;PMS5003;50435;43.700;-79.318;2022-11-15T07:15:14;6;3;
64138;PMS5003;50435;43.700;-79.318;2022-11-15T07:17:42;5;3;
64138;PMS5003;50435;43.700;-79.318;2022-11-15T07:20:10;2;2;
64138;PMS5003;50435;43.700;-79.318;2022-11-15T07:22:39;3;3;
64138;PMS5003;50435;43.700;-79.318;2022-11-15T07:25:07;4;4;
64138;PMS5003;50435;43.700;-79.318;2022-11-15T07:27:35;3;3;
64138;PMS5003;50435;43.700;-79.318;2022-11-15T07:30:03;3;3;
64138;PMS5003;50435;43.700;-79.318;2022-11-15T07:32:32;3;3;
64138;PMS5003;50435;43.700;-79.318;2022-11-15T07:34:59;3;3;
64138;PMS5003;50435;43.700;-79.318;2022-11-15T07:37:27;3;3;
64138;PMS5003;50435;43.700;-79.318;2022-11-15T07:39:54;5;3;
64138;PMS5003;50435;43.700;-79.318;2022-11-15T07:42:22;5;5;
64138;PMS5003;50435;43.700;-79.318;2022-11-15T07:44:49;2;2;
64138;PMS5003;50435;43.700;-79.318;2022-11-15T07:47:16;4;3;
64138;PMS5003;50435;43.700;-79.318;2022-11-15T07:49:44;3;3;
64138;PMS5003;50435;43.700;-79.318;2022-11-15T07:52:11;3;3;
64138;PMS5003;50435;43.700;-79.318;2022-11-15T07:54:39;4;4;
64138;PMS5003;50435;43.700;-79.318;2022-11-15T07:57:06;4;4;
64138;PMS5003;50435;43.700;-79.318;2022-11-15T07:59:34;5;5;
64138;PMS5003;50435;43.700;-79.318;2022-11-15T08:02:01;3;3;
64138;PMS5003;50435;43.700;-79.318;2022-11-15T08:04:29;3;3;
64138;PMS5003;50435;43.700;-79.318;2022-11-15T08:06:56;3;3;
64138;PMS5003;50435;43.700;-79.318;2022-11-15T08:09:23;2;2;
64138;PMS5003;50435;43.700;-79.318;2022-11-15T08:11:51;3;3;
64138;PMS5003;50435;43.700;-79.318;2022-11-15T08:14:18;2;2;
64138;PMS5003;50435;43.700;-79.318;2022-11-15T08:16:45;2;2;
64138;PMS5003;50435;43.700;-79.318;2022-11-15T08:19:13;3;3;
64138;PMS5003;50435;43.700;-79.318;2022-11-15T08:21:40;1;1;
64138;PMS5003;50435;43.700;-79.318;2022-11-15T08:24:08;1;1;
64138;PMS5003;50435;43.700;-79.318;2022-11-15T08:26:36;2;2;
64138;PMS5003;50435;43.700;-79.318;2022-11-15T08:29:04;3;3;
64138;PMS5003;50435;43.700;-79.318;2022-11-15T08:31:31;2;2;
64138;PMS5003;50435;43.700;-79.318;2022-11-15T08:33:58;4;3;
64138;PMS5003;50435;43.700;-79.318;2022-11-15T08:36:26;1;1;
64138;PMS5003;50435;43.700;-79.318;2022-11-15T08:38:54;4;2;
64138;PMS5003;50435;43.700;-79.318;2022-11-15T08:41:23;1;1;
64138;PMS5003;50435;43.700;-79.318;2022-11-15T08:43:53;2;1;
64138;PMS5003;50435;43.700;-79.318;2022-11-15T08:46:20;1;1;
64138;PMS5003;50435;43.700;-79.318;2022-11-15T08:48:47;1;1;
64138;PMS5003;50435;43.700;-79.318;2022-11-15T08:51:15;1;1;
64138;PMS5003;50435;43.700;-79.318;2022-11-15T08:53:43;1;1;
64138;PMS5003;50435;43.700;-79.318;2022-11-15T08:56:11;2;2;
64138;PMS5003;50435;43.700;-79.318;2022-11-15T08:58:40;1;1;
64138;PMS5003;50435;43.700;-79.318;2022-11-15T09:01:14;1;1;
64138;PMS5003;50435;43.700;-79.318;2022-11-15T09:03:43;3;1;
64138;PMS5003;50435;43.700;-79.318;2022-11-15T09:06:10;1;1;
64138;PMS5003;50435;43.700;-79.318;2022-11-15T09:08:38;1;1;
64138;PMS5003;50435;43.700;-79.318;2022-11-15T09:11:06;1;1;
64138;PMS5003;50435;43.700;-79.318;2022-11-15T09:13:34;3;3;
64138;PMS5003;50435;43.700;-79.318;2022-11-15T09:16:03;1;1;
64138;PMS5003;50435;43.700;-79.318;2022-11-15T09:18:31;4;1;
64138;PMS5003;50435;43.700;-79.318;2022-11-15T09:20:59;4;2;
64138;PMS5003;50435;43.700;-79.318;2022-11-15T09:23:27;2;2;
64138;PMS5003;50435;43.700;-79.318;2022-11-15T09:25:58;1;1;
64138;PMS5003;50435;43.700;-79.318;2022-11-15T09:28:26;1;1;
64138;PMS5003;50435;43.700;-79.318;2022-11-15T09:30:55;1;1;
64138;PMS5003;50435;43.700;-79.318;2022-11-15T09:33:23;2;2;
64138;PMS5003;50435;43.700;-79.318;2022-11-15T09:35:50;2;2;
64138;PMS5003;50435;43.700;-79.318;2022-11-15T09:38:18;1;0;
64138;PMS5003;50435;43.700;-79.318;2022-11-15T09:40:46;2;2;
64138;PMS5003;50435;43.700;-79.318;2022-11-15T09:43:24;2;1;
64138;PMS5003;50435;43.700;-79.318;2022-11-15T09:46:02;1;1;
64138;PMS5003;50435;43.700;-79.318;2022-11-15T09:48:43;1;1;
64138;PMS5003;50435;43.700;-79.318;2022-11-15T09:51:19;2;2;
64138;PMS5003;50435;43.700;-79.318;2022-11-15T09:53:54;1;1;
64138;PMS5003;50435;43.700;-79.318;2022-11-15T09:56:29;2;1;
64138;PMS5003;50435;43.700;-79.318;2022-11-15T09:59:01;2;1;
64138;PMS5003;50435;43.700;-79.318;2022-11-15T10:01:43;2;2;
64138;PMS5003;50435;43.700;-79.318;2022-11-15T10:04:17;2;2;
64138;PMS5003;50435;43.700;-79.318;2022-11-15T10:06:46;1;1;
64138;PMS5003;50435;43.700;-79.318;2022-11-15T10:09:21;1;1;
64138;PMS5003;50435;43.700;-79.318;2022-11-15T10:11:52;0;0;
64138;PMS5003;50435;43.700;-79.318;2022-11-15T10:14:20;4;2;
64138;PMS5003;50435;43.700;-79.318;2022-11-15T10:16:54;3;2;
64138;PMS5003;50435;43.700;-79.318;2022-11-15T10:19:43;1;1;
64138;PMS5003;50435;43.700;-79.318;2022-11-15T10:22:23;1;1;
64138;PMS5003;50435;43.700;-79.318;2022-11-15T10:24:59;2;1;
64138;PMS5003;50435;43.700;-79.318;2022-11-15T10:27:36;2;2;
64138;PMS5003;50435;43.700;-79.318;2022-11-15T10:30:08;0;0;
64138;PMS5003;50435;43.700;-79.318;2022-11-15T10:32:39;0;0;
64138;PMS5003;50435;43.700;-79.318;2022-11-15T10:35:22;0;0;
64138;PMS5003;50435;43.700;-79.318;2022-11-15T10:37:51;1;1;
64138;PMS5003;50435;43.700;-79.318;2022-11-15T10:40:30;0;0;
64138;PMS5003;50435;43.700;-79.318;2022-11-15T10:43:04;1;1;
64138;PMS5003;50435;43.700;-79.318;2022-11-15T10:45:39;1;1;
64138;PMS5003;50435;43.700;-79.318;2022-11-15T10:48:19;1;1;
64138;PMS5003;50435;43.700;-79.318;2022-11-15T10:50:50;1;1;
64138;PMS5003;50435;43.700;-79.318;2022-11-15T10:53:20;1;1;
64138;PMS5003;50435;43.700;-79.318;2022-11-15T10:55:51;1;1;
64138;PMS5003;50435;43.700;-79.318;2022-11-15T10:58:22;0;0;
64138;PMS5003;50435;43.700;-79.318;2022-11-15T11:01:08;1;1;
64138;PMS5003;50435;43.700;-79.318;2022-11-15T11:03:38;0;0;
64138;PMS5003;50435;43.700;-79.318;2022-11-15T11:06:08;1;1;
64138;PMS5003;50435;43.700;-79.318;2022-11-15T11:08:37;2;0;
64138;PMS5003;50435;43.700;-79.318;2022-11-15T11:11:06;0;0;
64138;PMS5003;50435;43.700;-79.318;2022-11-15T11:13:34;0;0;
64138;PMS5003;50435;43.700;-79.318;2022-11-15T11:16:08;0;0;
64138;PMS5003;50435;43.700;-79.318;2022-11-15T11:18:48;0;0;
64138;PMS5003;50435;43.700;-79.318;2022-11-15T11:21:22;1;1;
64138;PMS5003;50435;43.700;-79.318;2022-11-15T11:23:57;2;2;
64138;PMS5003;50435;43.700;-79.318;2022-11-15T11:26:42;0;0;
64138;PMS5003;50435;43.700;-79.318;2022-11-15T11:29:38;1;1;
64138;PMS5003;50435;43.700;-79.318;2022-11-15T11:32:23;3;2;
64138;PMS5003;50435;43.700;-79.318;2022-11-15T11:35:02;2;2;
64138;PMS5003;50435;43.700;-79.318;2022-11-15T11:37:42;1;1;
64138;PMS5003;50435;43.700;-79.318;2022-11-15T11:40:18;2;2;
64138;PMS5003;50435;43.700;-79.318;2022-11-15T11:42:55;1;0;
64138;PMS5003;50435;43.700;-79.318;2022-11-15T11:45:36;1;1;
64138;PMS5003;50435;43.700;-79.318;2022-11-15T11:48:20;2;1;
64138;PMS5003;50435;43.700;-79.318;2022-11-15T11:51:01;2;1;
64138;PMS5003;50435;43.700;-79.318;2022-11-15T11:53:35;2;2;
64138;PMS5003;50435;43.700;-79.318;2022-11-15T11:56:17;1;1;
64138;PMS5003;50435;43.700;-79.318;2022-11-15T11:58:50;1;1;
64138;PMS5003;50435;43.700;-79.318;2022-11-15T12:01:22;4;2;
64138;PMS5003;50435;43.700;-79.318;2022-11-15T12:03:54;3;3;
64138;PMS5003;50435;43.700;-79.318;2022-11-15T12:06:29;2;2;
64138;PMS5003;50435;43.700;-79.318;2022-11-15T12:09:01;3;3;
64138;PMS5003;50435;43.700;-79.318;2022-11-15T12:11:35;6;4;
64138;PMS5003;50435;43.700;-79.318;2022-11-15T12:14:10;3;3;
64138;PMS5003;50435;43.700;-79.318;2022-11-15T12:16:44;3;3;
64138;PMS5003;50435;43.700;-79.318;2022-11-15T12:19:11;4;4;
64138;PMS5003;50435;43.700;-79.318;2022-11-15T12:21:41;5;4;
64138;PMS5003;50435;43.700;-79.318;2022-11-15T12:24:26;5;4;
64138;PMS5003;50435;43.700;-79.318;2022-11-15T12:26:58;7;7;
64138;PMS5003;50435;43.700;-79.318;2022-11-15T12:29:31;4;3;
64138;PMS5003;50435;43.700;-79.318;2022-11-15T12:32:03;3;3;
64138;PMS5003;50435;43.700;-79.318;2022-11-15T12:34:43;5;5;
64138;PMS5003;50435;43.700;-79.318;2022-11-15T12:37:32;3;3;
64138;PMS5003;50435;43.700;-79.318;2022-11-15T12:40:19;4;4;
64138;PMS5003;50435;43.700;-79.318;2022-11-15T12:43:34;5;5;
64138;PMS5003;50435;43.700;-79.318;2022-11-15T12:46:12;7;5;
64138;PMS5003;50435;43.700;-79.318;2022-11-15T12:48:48;5;5;
64138;PMS5003;50435;43.700;-79.318;2022-11-15T12:51:19;4;4;
64138;PMS5003;50435;43.700;-79.318;2022-11-15T12:53:48;4;4;
64138;PMS5003;50435;43.700;-79.318;2022-11-15T12:56:20;4;4;
64138;PMS5003;50435;43.700;-79.318;2022-11-15T12:58:50;2;2;
64138;PMS5003;50435;43.700;-79.318;2022-11-15T13:01:55;4;4;
64138;PMS5003;50435;43.700;-79.318;2022-11-15T13:04:26;6;4;
64138;PMS5003;50435;43.700;-79.318;2022-11-15T13:06:56;7;4;
64138;PMS5003;50435;43.700;-79.318;2022-11-15T13:09:57;6;4;
64138;PMS5003;50435;43.700;-79.318;2022-11-15T13:12:57;3;3;
64138;PMS5003;50435;43.700;-79.318;2022-11-15T13:16:14;9;4;
64138;PMS5003;50435;43.700;-79.318;2022-11-15T13:18:52;5;5;
64138;PMS5003;50435;43.700;-79.318;2022-11-15T13:21:21;4;4;
64138;PMS5003;50435;43.700;-79.318;2022-11-15T13:23:52;6;5;
64138;PMS5003;50435;43.700;-79.318;2022-11-15T13:26:21;4;4;
64138;PMS5003;50435;43.700;-79.318;2022-11-15T13:28:49;5;5;
64138;PMS5003;50435;43.700;-79.318;2022-11-15T13:31:21;7;4;
64138;PMS5003;50435;43.700;-79.318;2022-11-15T13:33:52;9;5;
64138;PMS5003;50435;43.700;-79.318;2022-11-15T13:36:24;5;5;
64138;PMS5003;50435;43.700;-79.318;2022-11-15T13:38:55;6;5;
64138;PMS5003;50435;43.700;-79.318;2022-11-15T13:41:24;6;6;
64138;PMS5003;50435;43.700;-79.318;2022-11-15T13:43:54;7;4;
64138;PMS5003;50435;43.700;-79.318;2022-11-15T13:46:23;5;4;
64138;PMS5003;50435;43.700;-79.318;2022-11-15T13:48:54;9;7;
64138;PMS5003;50435;43.700;-79.318;2022-11-15T13:51:25;6;6;
64138;PMS5003;50435;43.700;-79.318;2022-11-15T13:54:01;9;7;
64138;PMS5003;50435;43.700;-79.318;2022-11-15T13:56:34;4;4;
64138;PMS5003;50435;43.700;-79.318;2022-11-15T13:59:08;7;7;
64138;PMS5003;50435;43.700;-79.318;2022-11-15T14:01:39;4;4;
64138;PMS5003;50435;43.700;-79.318;2022-11-15T14:04:09;6;6;
64138;PMS5003;50435;43.700;-79.318;2022-11-15T14:06:44;10;10;
64138;PMS5003;50435;43.700;-79.318;2022-11-15T14:09:39;7;5;
64138;PMS5003;50435;43.700;-79.318;2022-11-15T14:12:24;6;6;
64138;PMS5003;50435;43.700;-79.318;2022-11-15T14:14:54;4;4;
64138;PMS5003;50435;43.700;-79.318;2022-11-15T14:17:32;6;6;
64138;PMS5003;50435;43.700;-79.318;2022-11-15T14:20:02;5;5;
64138;PMS5003;50435;43.700;-79.318;2022-11-15T14:22:51;5;5;
64138;PMS5003;50435;43.700;-79.318;2022-11-15T14:25:19;13;11;
64138;PMS5003;50435;43.700;-79.318;2022-11-15T14:28:53;10;7;
64138;PMS5003;50435;43.700;-79.318;2022-11-15T14:31:20;7;6;
64138;PMS5003;50435;43.700;-79.318;2022-11-15T14:33:49;9;7;
64138;PMS5003;50435;43.700;-79.318;2022-11-15T14:36:17;7;6;
64138;PMS5003;50435;43.700;-79.318;2022-11-15T14:38:46;6;5;
64138;PMS5003;50435;43.700;-79.318;2022-11-15T14:41:17;6;4;
64138;PMS5003;50435;43.700;-79.318;2022-11-15T14:43:47;7;7;
64138;PMS5003;50435;43.700;-79.318;2022-11-15T14:46:14;7;7;
64138;PMS5003;50435;43.700;-79.318;2022-11-15T14:48:42;6;6;
64138;PMS5003;50435;43.700;-79.318;2022-11-15T14:51:11;6;5;
64138;PMS5003;50435;43.700;-79.318;2022-11-15T14:53:40;6;6;
64138;PMS5003;50435;43.700;-79.318;2022-11-15T14:56:09;9;6;
64138;PMS5003;50435;43.700;-79.318;2022-11-15T14:58:37;5;5;
64138;PMS5003;50435;43.700;-79.318;2022-11-15T15:01:09;5;5;
64138;PMS5003;50435;43.700;-79.318;2022-11-15T15:03:39;6;5;
64138;PMS5003;50435;43.700;-79.318;2022-11-15T15:06:07;5;5;
64138;PMS5003;50435;43.700;-79.318;2022-11-15T15:08:35;7;5;
64138;PMS5003;50435;43.700;-79.318;2022-11-15T15:11:03;5;5;
64138;PMS5003;50435;43.700;-79.318;2022-11-15T15:13:38;9;6;
64138;PMS5003;50435;43.700;-79.318;2022-11-15T15:16:05;6;3;
64138;PMS5003;50435;43.700;-79.318;2022-11-15T15:18:33;4;2;
64138;PMS5003;50435;43.700;-79.318;2022-11-15T15:21:01;6;5;
64138;PMS5003;50435;43.700;-79.318;2022-11-15T15:23:29;4;3;
64138;PMS5003;50435;43.700;-79.318;2022-11-15T15:25:56;4;3;
64138;PMS5003;50435;43.700;-79.318;2022-11-15T15:28:23;4;4;
64138;PMS5003;50435;43.700;-79.318;2022-11-15T15:30:51;3;3;
64138;PMS5003;50435;43.700;-79.318;2022-11-15T15:33:19;4;4;
64138;PMS5003;50435;43.700;-79.318;2022-11-15T15:35:46;6;5;
64138;PMS5003;50435;43.700;-79.318;2022-11-15T15:38:13;4;2;
64138;PMS5003;50435;43.700;-79.318;2022-11-15T15:40:41;4;3;
64138;PMS5003;50435;43.700;-79.318;2022-11-15T15:43:08;2;2;
64138;PMS5003;50435;43.700;-79.318;2022-11-15T15:45:36;3;3;
64138;PMS5003;50435;43.700;-79.318;2022-11-15T15:48:04;5;5;
64138;PMS5003;50435;43.700;-79.318;2022-11-15T15:50:32;3;3;
64138;PMS5003;50435;43.700;-79.318;2022-11-15T15:53:02;4;4;
64138;PMS5003;50435;43.700;-79.318;2022-11-15T15:55:31;5;4;
64138;PMS5003;50435;43.700;-79.318;2022-11-15T15:57:58;3;3;
64138;PMS5003;50435;43.700;-79.318;2022-11-15T16:00:27;4;4;
64138;PMS5003;50435;43.700;-79.318;2022-11-15T16:02:55;3;3;
64138;PMS5003;50435;43.700;-79.318;2022-11-15T16:05:22;4;3;
64138;PMS5003;50435;43.700;-79.318;2022-11-15T16:07:49;7;5;
64138;PMS5003;50435;43.700;-79.318;2022-11-15T16:10:19;4;3;
64138;PMS5003;50435;43.700;-79.318;2022-11-15T16:12:48;4;4;
64138;PMS5003;50435;43.700;-79.318;2022-11-15T16:15:16;7;4;
64138;PMS5003;50435;43.700;-79.318;2022-11-15T16:17:47;5;4;
64138;PMS5003;50435;43.700;-79.318;2022-11-15T16:20:33;4;3;
64138;PMS5003;50435;43.700;-79.318;2022-11-15T16:23:04;6;4;
64138;PMS5003;50435;43.700;-79.318;2022-11-15T16:25:34;5;4;
64138;PMS5003;50435;43.700;-79.318;2022-11-15T16:28:10;4;4;
64138;PMS5003;50435;43.700;-79.318;2022-11-15T16:30:44;3;3;
64138;PMS5003;50435;43.700;-79.318;2022-11-15T16:33:11;4;4;
64138;PMS5003;50435;43.700;-79.318;2022-11-15T16:35:38;3;3;
64138;PMS5003;50435;43.700;-79.318;2022-11-15T16:38:07;7;5;
64138;PMS5003;50435;43.700;-79.318;2022-11-15T16:40:41;4;4;
64138;PMS5003;50435;43.700;-79.318;2022-11-15T16:43:08;3;3;